createdAt,value
2023-04-12T00:01:50.168Z,44.10
2023-04-12T00:04:16.850Z,44.10
2023-04-12T00:06:43.403Z,44.10
2023-04-12T00:09:09.896Z,44.10
2023-04-12T00:11:36.347Z,44.00
2023-04-12T00:14:02.825Z,44.10
2023-04-12T00:16:29.413Z,44.20
2023-04-12T00:18:55.961Z,44.20
2023-04-12T00:21:22.468Z,44.10
2023-04-12T00:23:48.935Z,44.10
2023-04-12T00:26:15.366Z,44.10
2023-04-12T00:28:43.690Z,44.20
2023-04-12T00:31:10.193Z,44.20
2023-04-12T00:33:36.693Z,44.20
2023-04-12T00:36:03.197Z,44.20
2023-04-12T00:38:29.664Z,44.00
2023-04-12T00:40:56.144Z,44.10
2023-04-12T00:43:22.618Z,44.20
2023-04-12T00:45:49.079Z,44.20
2023-04-12T00:48:15.539Z,44.30
2023-04-12T00:50:42.021Z,44.20
2023-04-12T00:53:08.484Z,44.20
2023-04-12T00:55:34.978Z,44.30
2023-04-12T00:58:01.458Z,44.30
2023-04-12T01:00:28.008Z,44.20
2023-04-12T01:02:54.609Z,44.30
2023-04-12T01:05:25.760Z,44.30
2023-04-12T01:07:52.226Z,44.30
2023-04-12T01:10:18.703Z,44.20
2023-04-12T01:12:45.187Z,44.20
2023-04-12T01:15:11.675Z,44.30
2023-04-12T01:17:38.218Z,44.20
2023-04-12T01:20:07.786Z,44.30
2023-04-12T01:22:34.244Z,44.40
2023-04-12T01:25:00.742Z,44.40
2023-04-12T01:27:27.210Z,44.50
2023-04-12T01:29:53.703Z,44.60
2023-04-12T01:32:20.176Z,44.60
2023-04-12T01:34:46.664Z,44.70
2023-04-12T01:37:13.145Z,44.70
2023-04-12T01:39:39.616Z,44.80
2023-04-12T01:42:06.092Z,44.70
2023-04-12T01:44:32.557Z,44.80
2023-04-12T01:46:59.060Z,44.90
2023-04-12T01:49:25.521Z,45.10
2023-04-12T01:51:51.982Z,45.00
2023-04-12T01:54:18.445Z,45.20
2023-04-12T01:56:44.974Z,45.20
2023-04-12T01:59:11.478Z,45.30
2023-04-12T02:01:38.070Z,45.30
2023-04-12T02:04:04.712Z,45.30
2023-04-12T02:06:31.346Z,45.40
2023-04-12T02:08:57.824Z,45.40
2023-04-12T02:11:24.321Z,45.70
2023-04-12T02:13:50.810Z,45.70
2023-04-12T02:16:19.871Z,45.70
2023-04-12T02:18:46.332Z,45.60
2023-04-12T02:21:12.806Z,45.80
2023-04-12T02:23:39.306Z,45.80
2023-04-12T02:26:05.794Z,45.90
2023-04-12T02:28:32.272Z,46.30
2023-04-12T02:30:58.797Z,46.20
2023-04-12T02:33:25.315Z,46.20
2023-04-12T02:35:51.877Z,46.40
2023-04-12T02:38:18.412Z,46.30
2023-04-12T02:40:44.884Z,46.20
2023-04-12T02:43:11.367Z,46.30
2023-04-12T02:45:37.836Z,46.40
2023-04-12T02:48:04.340Z,46.50
2023-04-12T02:50:30.841Z,46.50
2023-04-12T02:52:57.316Z,46.70
2023-04-12T02:55:23.785Z,46.90
2023-04-12T02:57:50.246Z,46.90
2023-04-12T03:00:16.720Z,46.90
2023-04-12T03:02:43.340Z,47.00
2023-04-12T03:05:09.955Z,47.20
2023-04-12T03:07:36.424Z,47.10
2023-04-12T03:10:02.900Z,47.30
2023-04-12T03:12:29.380Z,47.30
2023-04-12T03:14:55.863Z,47.20
2023-04-12T03:17:22.342Z,47.20
2023-04-12T03:19:48.853Z,47.10
2023-04-12T03:22:15.331Z,47.20
2023-04-12T03:24:41.786Z,47.40
2023-04-12T03:27:13.862Z,47.60
2023-04-12T03:29:40.348Z,47.60
2023-04-12T03:32:06.832Z,47.70
2023-04-12T03:34:33.319Z,47.70
2023-04-12T03:36:59.801Z,47.70
2023-04-12T03:39:26.310Z,47.80
2023-04-12T03:41:52.769Z,47.80
2023-04-12T03:44:19.227Z,47.90
2023-04-12T03:46:45.730Z,47.80
2023-04-12T03:49:12.204Z,48.10
2023-04-12T03:51:38.665Z,48.30
2023-04-12T03:54:05.150Z,48.20
2023-04-12T03:56:31.612Z,48.30
2023-04-12T03:58:58.082Z,48.20
2023-04-12T04:01:25.864Z,48.20
2023-04-12T04:03:52.485Z,48.30
2023-04-12T04:06:19.045Z,48.30
2023-04-12T04:08:45.534Z,48.10
2023-04-12T04:11:11.988Z,48.30
2023-04-12T04:13:38.467Z,48.50
2023-04-12T04:16:04.982Z,48.30
2023-04-12T04:18:31.483Z,48.30
2023-04-12T04:20:57.933Z,48.30
2023-04-12T04:23:24.415Z,48.50
2023-04-12T04:25:50.885Z,48.60
2023-04-12T04:28:17.390Z,48.50
2023-04-12T04:30:43.850Z,48.60
2023-04-12T04:33:10.402Z,48.50
2023-04-12T04:35:36.906Z,48.70
2023-04-12T04:38:03.422Z,48.70
2023-04-12T04:40:31.914Z,48.80
2023-04-12T04:43:01.928Z,48.80
2023-04-12T04:45:32.108Z,48.90
2023-04-12T04:47:58.708Z,48.90
2023-04-12T04:50:25.205Z,48.80
2023-04-12T04:52:51.698Z,48.90
2023-04-12T04:55:18.194Z,49.00
2023-04-12T04:57:44.699Z,49.00
2023-04-12T05:00:11.268Z,49.00
2023-04-12T05:02:37.915Z,49.30
2023-04-12T05:05:04.438Z,49.30
2023-04-12T05:07:31.965Z,49.30
2023-04-12T05:09:58.425Z,49.20
2023-04-12T05:12:24.903Z,49.30
2023-04-12T05:14:51.864Z,49.40
2023-04-12T05:17:18.495Z,49.60
2023-04-12T05:19:44.989Z,49.40
2023-04-12T05:22:11.464Z,49.60
2023-04-12T05:24:38.019Z,49.50
2023-04-12T05:27:04.492Z,49.70
2023-04-12T05:29:30.979Z,49.60
2023-04-12T05:31:57.440Z,49.60
2023-04-12T05:34:23.936Z,49.70
2023-04-12T05:36:50.433Z,49.70
2023-04-12T05:39:18.234Z,49.80
2023-04-12T05:41:45.891Z,49.80
2023-04-12T05:44:12.371Z,50.00
2023-04-12T05:46:38.873Z,50.20
2023-04-12T05:49:05.360Z,50.20
2023-04-12T05:51:40.446Z,50.10
2023-04-12T05:54:07.623Z,50.40
2023-04-12T05:56:34.084Z,50.40
2023-04-12T05:59:00.572Z,50.40
2023-04-12T06:01:27.040Z,50.50
2023-04-12T06:03:53.675Z,50.60
2023-04-12T06:06:20.288Z,50.60
2023-04-12T06:08:46.764Z,50.80
2023-04-12T06:11:13.247Z,50.70
2023-04-12T06:13:39.733Z,50.80
2023-04-12T06:16:06.287Z,51.00
2023-04-12T06:18:32.829Z,51.30
2023-04-12T06:20:59.283Z,51.30
2023-04-12T06:23:25.797Z,51.10
2023-04-12T06:25:52.275Z,51.30
2023-04-12T06:28:20.033Z,51.30
2023-04-12T06:30:46.499Z,51.30
2023-04-12T06:33:13.001Z,51.60
2023-04-12T06:35:39.549Z,51.60
2023-04-12T06:38:06.102Z,51.60
2023-04-12T06:40:32.609Z,51.70
2023-04-12T06:42:59.088Z,51.70
2023-04-12T06:45:25.559Z,52.00
2023-04-12T06:47:52.070Z,51.90
2023-04-12T06:50:18.572Z,51.80
2023-04-12T06:52:45.103Z,51.80
2023-04-12T06:55:11.570Z,51.80
2023-04-12T06:57:38.041Z,51.90
2023-04-12T07:00:05.598Z,51.90
2023-04-12T07:02:32.464Z,51.90
2023-04-12T07:04:59.245Z,51.80
2023-04-12T07:07:25.708Z,51.90
2023-04-12T07:09:52.250Z,52.00
2023-04-12T07:12:18.739Z,52.00
2023-04-12T07:14:45.222Z,52.20
2023-04-12T07:17:11.696Z,52.20
2023-04-12T07:19:38.182Z,52.40
2023-04-12T07:22:04.666Z,52.20
2023-04-12T07:24:31.150Z,52.40
2023-04-12T07:26:57.643Z,52.40
2023-04-12T07:29:24.133Z,52.30
2023-04-12T07:31:50.599Z,52.40
2023-04-12T07:34:17.280Z,52.60
2023-04-12T07:36:43.823Z,52.50
2023-04-12T07:39:10.317Z,52.50
2023-04-12T07:41:36.786Z,52.60
2023-04-12T07:44:03.284Z,52.60
2023-04-12T07:46:29.796Z,52.40
2023-04-12T07:49:02.095Z,52.70
2023-04-12T07:51:28.613Z,52.70
2023-04-12T07:53:55.271Z,52.50
2023-04-12T07:56:21.933Z,52.70
2023-04-12T07:58:48.401Z,52.60
2023-04-12T08:01:14.874Z,52.50
2023-04-12T08:03:41.458Z,52.50
2023-04-12T08:06:08.118Z,52.70
2023-04-12T08:08:34.749Z,53.10
2023-04-12T08:11:01.232Z,52.90
2023-04-12T08:13:27.697Z,52.90
2023-04-12T08:15:54.281Z,52.90
2023-04-12T08:18:20.799Z,52.90
2023-04-12T08:20:47.274Z,52.90
2023-04-12T08:23:13.748Z,53.00
2023-04-12T08:25:40.216Z,53.10
2023-04-12T08:28:06.697Z,53.20
2023-04-12T08:30:33.162Z,53.00
2023-04-12T08:32:59.693Z,53.00
2023-04-12T08:35:26.209Z,52.90
2023-04-12T08:37:52.681Z,53.20
2023-04-12T08:40:19.166Z,52.90
2023-04-12T08:42:45.623Z,52.80
2023-04-12T08:45:12.104Z,53.00
2023-04-12T08:47:38.645Z,52.80
2023-04-12T08:50:05.164Z,52.90
2023-04-12T08:52:31.645Z,52.90
2023-04-12T08:54:58.109Z,52.90
2023-04-12T08:57:24.582Z,52.90
2023-04-12T08:59:51.074Z,52.90
2023-04-12T09:02:17.712Z,53.20
2023-04-12T09:04:44.386Z,53.20
2023-04-12T09:07:10.999Z,53.20
2023-04-12T09:09:37.490Z,53.10
2023-04-12T09:12:03.951Z,53.30
2023-04-12T09:14:30.436Z,53.30
2023-04-12T09:16:56.967Z,53.30
2023-04-12T09:19:23.500Z,53.30
2023-04-12T09:21:49.992Z,53.30
2023-04-12T09:24:16.444Z,53.40
2023-04-12T09:26:42.926Z,53.20
2023-04-12T09:29:09.385Z,53.30
2023-04-12T09:31:35.936Z,53.30
2023-04-12T09:34:02.415Z,53.40
2023-04-12T09:36:28.897Z,53.40
2023-04-12T09:38:55.387Z,53.30
2023-04-12T09:41:27.383Z,53.30
2023-04-12T09:43:54.078Z,53.10
2023-04-12T09:46:20.600Z,53.20
2023-04-12T09:48:47.216Z,53.20
2023-04-12T09:51:13.705Z,53.30
2023-04-12T09:53:40.218Z,53.20
2023-04-12T09:56:06.710Z,53.30
2023-04-12T09:58:33.194Z,53.30
2023-04-12T10:00:59.661Z,53.30
2023-04-12T10:03:26.222Z,53.30
2023-04-12T10:05:52.820Z,53.40
2023-04-12T10:08:19.333Z,53.40
2023-04-12T10:10:45.851Z,53.70
2023-04-12T10:13:12.334Z,53.70
2023-04-12T10:15:38.848Z,53.50
2023-04-12T10:18:05.404Z,53.40
2023-04-12T10:20:31.970Z,53.40
2023-04-12T10:22:58.436Z,53.50
2023-04-12T10:25:24.931Z,53.20
2023-04-12T10:27:51.522Z,53.40
2023-04-12T10:30:18.041Z,53.40
2023-04-12T10:32:44.529Z,53.50
2023-04-12T10:35:11.056Z,53.40
2023-04-12T10:37:37.542Z,53.60
2023-04-12T10:40:04.037Z,53.50
2023-04-12T10:42:30.546Z,53.60
2023-04-12T10:44:58.832Z,53.40
2023-04-12T10:47:27.576Z,53.40
2023-04-12T10:49:54.115Z,53.40
2023-04-12T10:52:20.605Z,53.50
2023-04-12T10:54:47.092Z,53.40
2023-04-12T10:57:13.583Z,53.50
2023-04-12T10:59:47.283Z,53.50
2023-04-12T11:02:14.610Z,53.50
2023-04-12T11:04:41.266Z,53.50
2023-04-12T11:07:07.830Z,53.50
2023-04-12T11:09:34.345Z,53.60
2023-04-12T11:12:00.916Z,53.50
2023-04-12T11:14:27.387Z,53.60
2023-04-12T11:16:53.917Z,53.60
2023-04-12T11:19:20.416Z,53.70
2023-04-12T11:21:46.895Z,53.70
2023-04-12T11:24:13.360Z,53.70
2023-04-12T11:26:39.868Z,53.70
2023-04-12T11:29:06.332Z,53.80
2023-04-12T11:31:32.847Z,53.80
2023-04-12T11:33:59.334Z,53.90
2023-04-12T11:36:25.822Z,53.90
2023-04-12T11:38:52.286Z,53.90
2023-04-12T11:41:18.808Z,54.00
2023-04-12T11:43:45.279Z,53.90
2023-04-12T11:46:11.818Z,54.00
2023-04-12T11:48:38.315Z,54.00
2023-04-12T11:51:11.449Z,54.00
2023-04-12T11:53:38.263Z,54.10
2023-04-12T11:56:04.722Z,54.10
2023-04-12T11:58:31.181Z,54.00
2023-04-12T12:00:57.665Z,54.10
2023-04-12T12:03:24.305Z,54.20
2023-04-12T12:05:51.255Z,54.30
2023-04-12T12:08:17.919Z,54.20
2023-04-12T12:10:59.897Z,54.20
2023-04-12T12:13:30.855Z,54.20
2023-04-12T12:15:57.546Z,54.30
2023-04-12T12:18:24.094Z,54.30
2023-04-12T12:20:50.554Z,54.30
2023-04-12T12:23:17.058Z,54.30
2023-04-12T12:25:43.526Z,54.40
2023-04-12T12:28:10.104Z,54.30
2023-04-12T12:30:36.630Z,54.30
2023-04-12T12:33:03.191Z,54.40
2023-04-12T12:35:29.692Z,54.40
2023-04-12T12:37:56.210Z,54.40
2023-04-12T12:40:22.686Z,54.40
2023-04-12T12:42:49.182Z,54.30
2023-04-12T12:45:15.662Z,54.30
2023-04-12T12:47:42.231Z,54.30
2023-04-12T12:50:08.870Z,54.30
2023-04-12T12:52:35.399Z,54.30
2023-04-12T12:55:01.872Z,54.30
2023-04-12T12:57:28.341Z,54.20
2023-04-12T12:59:54.821Z,54.30
2023-04-12T13:02:21.477Z,54.20
2023-04-12T13:04:48.244Z,54.10
2023-04-12T13:07:14.880Z,54.20
2023-04-12T13:09:41.374Z,54.10
2023-04-12T13:12:07.845Z,54.20
2023-04-12T13:14:34.327Z,54.30
2023-04-12T13:17:00.799Z,54.20
2023-04-12T13:19:27.273Z,54.10
2023-04-12T13:21:53.728Z,54.20
2023-04-12T13:24:20.366Z,54.10
2023-04-12T13:26:46.883Z,54.10
2023-04-12T13:29:13.364Z,54.10
2023-04-12T13:31:39.845Z,54.10
2023-04-12T13:34:06.338Z,54.20
2023-04-12T13:36:32.804Z,54.10
2023-04-12T13:38:59.460Z,54.00
2023-04-12T13:41:26.231Z,54.00
2023-04-12T13:43:52.715Z,54.00
2023-04-12T13:46:19.276Z,54.00
2023-04-12T13:48:45.830Z,54.00
2023-04-12T13:51:12.298Z,53.90
2023-04-12T13:53:38.817Z,53.90
2023-04-12T13:56:05.278Z,54.00
2023-04-12T13:58:31.768Z,53.90
2023-04-12T14:00:58.324Z,53.90
2023-04-12T14:03:24.901Z,53.90
2023-04-12T14:05:51.398Z,53.90
2023-04-12T14:08:17.913Z,53.80
2023-04-12T14:10:44.386Z,53.90
2023-04-12T14:13:10.874Z,53.80
2023-04-12T14:15:37.340Z,53.70
2023-04-12T14:18:04.062Z,53.80
2023-04-12T14:20:30.614Z,53.60
2023-04-12T14:22:57.095Z,53.70
2023-04-12T14:25:23.555Z,53.80
2023-04-12T14:27:50.132Z,53.70
2023-04-12T14:30:18.876Z,53.70
2023-04-12T14:32:47.289Z,53.70
2023-04-12T14:35:14.117Z,53.70
2023-04-12T14:37:40.578Z,53.70
2023-04-12T14:40:07.082Z,53.60
2023-04-12T14:42:33.609Z,53.60
2023-04-12T14:45:00.114Z,53.60
2023-04-12T14:47:26.639Z,53.50
2023-04-12T14:49:53.138Z,53.40
2023-04-12T14:52:19.611Z,53.40
2023-04-12T14:54:46.090Z,53.40
2023-04-12T14:57:12.589Z,53.30
2023-04-12T14:59:39.131Z,53.30
2023-04-12T15:02:05.659Z,53.20
2023-04-12T15:04:32.260Z,53.30
2023-04-12T15:06:58.845Z,53.10
2023-04-12T15:09:25.398Z,53.30
2023-04-12T15:11:51.877Z,53.30
2023-04-12T15:14:18.374Z,53.30
2023-04-12T15:16:44.955Z,53.20
2023-04-12T15:19:19.134Z,53.20
2023-04-12T15:21:47.129Z,53.10
2023-04-12T15:24:13.629Z,53.20
2023-04-12T15:26:40.086Z,53.20
2023-04-12T15:29:06.572Z,53.20
2023-04-12T15:31:33.072Z,53.20
2023-04-12T15:33:59.801Z,53.30
2023-04-12T15:36:26.395Z,53.30
2023-04-12T15:38:52.889Z,53.30
2023-04-12T15:41:19.363Z,53.30
2023-04-12T15:43:45.834Z,53.30
2023-04-12T15:46:12.337Z,53.30
2023-04-12T15:48:38.986Z,53.30
2023-04-12T15:51:05.516Z,53.40
2023-04-12T15:53:31.978Z,53.40
2023-04-12T15:55:58.452Z,53.30
2023-04-12T15:58:24.943Z,53.30
2023-04-12T16:00:51.418Z,53.30
2023-04-12T16:03:18.019Z,53.20
2023-04-12T16:05:44.650Z,53.30
2023-04-12T16:08:11.135Z,53.20
2023-04-12T16:10:37.618Z,53.20
2023-04-12T16:13:04.079Z,53.20
2023-04-12T16:15:30.557Z,53.00
2023-04-12T16:17:57.077Z,53.00
2023-04-12T16:20:23.589Z,53.00
2023-04-12T16:22:50.083Z,53.10
2023-04-12T16:25:16.605Z,53.00
2023-04-12T16:27:43.070Z,53.00
2023-04-12T16:30:09.562Z,53.00
2023-04-12T16:32:36.072Z,53.00
2023-04-12T16:35:02.603Z,53.00
2023-04-12T16:37:29.073Z,53.10
2023-04-12T16:39:55.598Z,53.10
2023-04-12T16:42:22.092Z,53.20
2023-04-12T16:44:48.598Z,53.10
2023-04-12T16:47:15.118Z,53.10
2023-04-12T16:49:41.618Z,53.00
2023-04-12T16:52:08.090Z,52.90
2023-04-12T16:54:34.580Z,52.70
2023-04-12T16:57:01.040Z,52.70
2023-04-12T16:59:27.512Z,52.80
2023-04-12T17:01:54.003Z,52.80
2023-04-12T17:04:20.610Z,52.70
2023-04-12T17:06:47.159Z,52.20
2023-04-12T17:09:13.631Z,52.00
2023-04-12T17:11:40.111Z,52.40
2023-04-12T17:14:06.587Z,52.40
2023-04-12T17:16:33.155Z,52.40
2023-04-12T17:18:59.864Z,52.10
2023-04-12T17:21:26.663Z,51.80
2023-04-12T17:23:53.112Z,52.20
2023-04-12T17:26:19.961Z,52.10
2023-04-12T17:28:50.666Z,52.10
2023-04-12T17:31:17.189Z,52.10
2023-04-12T17:33:43.690Z,52.00
2023-04-12T17:36:11.665Z,52.00
2023-04-12T17:38:38.357Z,52.00
2023-04-12T17:41:04.844Z,51.90
2023-04-12T17:43:31.321Z,51.80
2023-04-12T17:46:02.827Z,51.80
2023-04-12T17:48:29.353Z,51.80
2023-04-12T17:50:55.840Z,51.90
2023-04-12T17:53:22.310Z,51.90
2023-04-12T17:55:50.622Z,51.80
2023-04-12T17:58:17.327Z,51.70
2023-04-12T18:00:43.824Z,51.80
2023-04-12T18:03:10.403Z,51.80
2023-04-12T18:05:36.943Z,51.90
2023-04-12T18:08:08.617Z,51.90
2023-04-12T18:10:35.101Z,51.90
2023-04-12T18:13:01.566Z,51.90
2023-04-12T18:15:28.013Z,51.90
2023-04-12T18:17:54.494Z,51.90
2023-04-12T18:20:20.953Z,51.80
2023-04-12T18:22:47.431Z,51.90
2023-04-12T18:25:13.918Z,51.90
2023-04-12T18:27:40.402Z,51.80
2023-04-12T18:30:06.875Z,51.80
2023-04-12T18:32:33.349Z,51.80
2023-04-12T18:34:59.843Z,51.70
2023-04-12T18:37:26.314Z,51.80
2023-04-12T18:39:53.399Z,51.80
2023-04-12T18:42:20.026Z,51.80
2023-04-12T18:44:46.497Z,51.80
2023-04-12T18:47:12.968Z,51.70
2023-04-12T18:49:39.431Z,51.70
2023-04-12T18:52:05.906Z,51.80
2023-04-12T18:54:32.384Z,51.70
2023-04-12T18:56:58.863Z,51.70
2023-04-12T18:59:25.360Z,51.60
2023-04-12T19:01:51.871Z,51.70
2023-04-12T19:04:18.460Z,51.70
2023-04-12T19:06:44.974Z,51.60
2023-04-12T19:09:11.456Z,51.60
2023-04-12T19:11:37.927Z,51.50
2023-04-12T19:14:04.432Z,51.60
2023-04-12T19:16:31.022Z,51.60
2023-04-12T19:18:57.522Z,51.70
2023-04-12T19:21:24.020Z,51.70
2023-04-12T19:23:50.497Z,51.70
2023-04-12T19:26:16.965Z,51.70
2023-04-12T19:28:43.462Z,51.80
2023-04-12T19:31:10.853Z,51.70
2023-04-12T19:33:37.404Z,51.70
2023-04-12T19:36:03.883Z,51.70
2023-04-12T19:38:30.362Z,51.70
2023-04-12T19:40:56.836Z,51.70
2023-04-12T19:43:23.317Z,51.80
2023-04-12T19:45:49.849Z,51.80
2023-04-12T19:48:16.365Z,51.80
2023-04-12T19:50:42.863Z,51.80
2023-04-12T19:53:09.351Z,51.80
2023-04-12T19:55:35.848Z,51.80
2023-04-12T19:58:02.334Z,51.70
2023-04-12T20:00:28.820Z,51.70
2023-04-12T20:02:55.430Z,51.80
2023-04-12T20:05:21.901Z,51.80
2023-04-12T20:07:48.358Z,51.80
2023-04-12T20:10:14.869Z,51.80
2023-04-12T20:12:41.435Z,51.70
2023-04-12T20:15:07.913Z,51.70
2023-04-12T20:17:34.406Z,51.70
2023-04-12T20:20:00.908Z,51.70
2023-04-12T20:22:27.395Z,51.60
2023-04-12T20:24:53.882Z,51.70
2023-04-12T20:27:20.337Z,51.50
2023-04-12T20:29:46.812Z,51.60
2023-04-12T20:32:13.321Z,51.60
2023-04-12T20:34:39.790Z,51.60
2023-04-12T20:37:06.290Z,51.60
2023-04-12T20:39:32.742Z,51.60
2023-04-12T20:41:59.212Z,51.50
2023-04-12T20:44:25.688Z,51.50
2023-04-12T20:46:52.172Z,51.40
2023-04-12T20:49:18.720Z,51.50
2023-04-12T20:51:45.166Z,51.40
2023-04-12T20:54:11.635Z,51.30
2023-04-12T20:56:38.103Z,51.40
2023-04-12T20:59:04.584Z,51.40
2023-04-12T21:01:31.167Z,51.40
2023-04-12T21:03:57.803Z,51.30
2023-04-12T21:06:24.309Z,51.30
2023-04-12T21:08:57.014Z,51.10
2023-04-12T21:11:23.679Z,51.20
2023-04-12T21:13:50.147Z,51.10
2023-04-12T21:16:16.632Z,50.90
2023-04-12T21:18:43.139Z,50.90
2023-04-12T21:21:09.607Z,50.80
2023-04-12T21:23:36.092Z,50.60
2023-04-12T21:26:02.557Z,50.60
2023-04-12T21:28:29.153Z,50.60
2023-04-12T21:30:55.617Z,50.40
2023-04-12T21:33:22.092Z,50.50
2023-04-12T21:35:48.573Z,50.50
2023-04-12T21:38:15.052Z,50.50
2023-04-12T21:40:41.513Z,50.40
2023-04-12T21:43:07.982Z,50.40
2023-04-12T21:45:34.470Z,50.40
2023-04-12T21:48:01.050Z,50.40
2023-04-12T21:50:27.578Z,50.40
2023-04-12T21:52:54.059Z,50.40
2023-04-12T21:55:20.530Z,50.30
2023-04-12T21:57:47.156Z,50.30
2023-04-12T22:00:13.621Z,50.40
2023-04-12T22:02:40.245Z,50.50
2023-04-12T22:05:06.815Z,50.40
2023-04-12T22:07:33.286Z,50.30
2023-04-12T22:09:59.771Z,50.10
2023-04-12T22:12:26.257Z,50.20
2023-04-12T22:14:52.838Z,50.00
2023-04-12T22:17:19.357Z,50.30
2023-04-12T22:19:45.830Z,50.30
2023-04-12T22:22:12.302Z,50.30
2023-04-12T22:24:38.765Z,50.30
2023-04-12T22:27:05.270Z,50.20
2023-04-12T22:29:31.735Z,50.30
2023-04-12T22:31:58.205Z,50.30
2023-04-12T22:34:24.697Z,50.20
2023-04-12T22:36:51.185Z,50.20
2023-04-12T22:39:17.658Z,50.20
2023-04-12T22:41:44.121Z,50.00
2023-04-12T22:44:10.712Z,50.00
2023-04-12T22:46:37.204Z,50.00
2023-04-12T22:49:03.712Z,50.10
2023-04-12T22:51:30.178Z,50.10
2023-04-12T22:53:57.011Z,50.20
2023-04-12T22:56:23.711Z,50.20
2023-04-12T22:58:50.172Z,50.10
2023-04-12T23:01:16.664Z,50.00
2023-04-12T23:03:43.176Z,50.10
2023-04-12T23:06:09.672Z,49.90
2023-04-12T23:08:36.181Z,49.90
2023-04-12T23:11:02.659Z,50.00
2023-04-12T23:13:29.142Z,49.90
2023-04-12T23:15:55.634Z,49.90
2023-04-12T23:18:22.139Z,50.00
2023-04-12T23:20:48.628Z,49.90
2023-04-12T23:23:15.117Z,49.90
2023-04-12T23:25:41.690Z,49.90
2023-04-12T23:28:08.257Z,49.90
2023-04-12T23:30:34.721Z,50.00
2023-04-12T23:33:01.288Z,49.90
2023-04-12T23:35:27.770Z,49.90
2023-04-12T23:37:54.289Z,49.80
2023-04-12T23:40:20.767Z,49.70
2023-04-12T23:42:47.229Z,49.60
2023-04-12T23:45:13.699Z,49.60
2023-04-12T23:47:40.179Z,49.70
2023-04-12T23:50:06.672Z,49.60
2023-04-12T23:52:33.146Z,49.70
2023-04-12T23:54:59.637Z,49.70
2023-04-12T23:57:26.142Z,49.50
2023-04-12T23:59:52.620Z,49.40
